sensor_id;sensor_type;location;lat;lon;timestamp;pressure;altitude;pressure_sealevel;temperature;humidity
16738;BME280;17906;47.684;10.806;2023-12-20T00:01:08;93266.31;;;1.14;nan
16738;BME280;17906;47.684;10.806;2023-12-20T00:03:35;93252.19;;;1.21;nan
16738;BME280;17906;47.684;10.806;2023-12-20T00:06:02;93248.75;;;1.27;nan
16738;BME280;17906;47.684;10.806;2023-12-20T00:08:28;93233.13;;;1.24;nan
16738;BME280;17906;47.684;10.806;2023-12-20T00:10:55;93231.34;;;1.31;nan
16738;BME280;17906;47.684;10.806;2023-12-20T00:13:21;93221.88;;;1.28;nan
16738;BME280;17906;47.684;10.806;2023-12-20T00:15:49;93221.53;;;1.16;nan
16738;BME280;17906;47.684;10.806;2023-12-20T00:18:16;93212.22;;;1.06;nan
16738;BME280;17906;47.684;10.806;2023-12-20T00:20:43;93212.16;;;0.99;nan
16738;BME280;17906;47.684;10.806;2023-12-20T00:23:09;93209.50;;;0.99;nan
16738;BME280;17906;47.684;10.806;2023-12-20T00:25:36;93210.50;;;0.98;nan
16738;BME280;17906;47.684;10.806;2023-12-20T00:28:03;93217.22;;;0.94;nan
16738;BME280;17906;47.684;10.806;2023-12-20T00:30:29;93223.22;;;0.96;nan
16738;BME280;17906;47.684;10.806;2023-12-20T00:32:57;93224.69;;;0.99;nan
16738;BME280;17906;47.684;10.806;2023-12-20T00:35:24;93215.91;;;1.05;nan
16738;BME280;17906;47.684;10.806;2023-12-20T00:37:50;93219.03;;;1.08;nan
16738;BME280;17906;47.684;10.806;2023-12-20T00:40:17;93200.34;;;1.08;nan
16738;BME280;17906;47.684;10.806;2023-12-20T00:42:44;93202.69;;;1.18;nan
16738;BME280;17906;47.684;10.806;2023-12-20T00:45:09;93198.34;;;1.17;nan
16738;BME280;17906;47.684;10.806;2023-12-20T00:47:36;93194.84;;;1.16;nan
16738;BME280;17906;47.684;10.806;2023-12-20T00:50:05;93195.88;;;1.15;nan
16738;BME280;17906;47.684;10.806;2023-12-20T00:52:32;93192.00;;;1.18;nan
16738;BME280;17906;47.684;10.806;2023-12-20T00:54:58;93185.47;;;1.21;nan
16738;BME280;17906;47.684;10.806;2023-12-20T00:57:25;93189.97;;;1.20;nan
16738;BME280;17906;47.684;10.806;2023-12-20T00:59:51;93182.38;;;1.24;nan
16738;BME280;17906;47.684;10.806;2023-12-20T01:02:18;93175.22;;;1.24;nan
16738;BME280;17906;47.684;10.806;2023-12-20T01:04:45;93182.78;;;1.21;nan
16738;BME280;17906;47.684;10.806;2023-12-20T01:07:13;93165.34;;;1.25;nan
16738;BME280;17906;47.684;10.806;2023-12-20T01:09:39;93157.34;;;1.25;nan
16738;BME280;17906;47.684;10.806;2023-12-20T01:12:06;93154.66;;;1.25;nan
16738;BME280;17906;47.684;10.806;2023-12-20T01:14:33;93158.25;;;1.10;nan
16738;BME280;17906;47.684;10.806;2023-12-20T01:16:59;93169.91;;;1.03;nan
16738;BME280;17906;47.684;10.806;2023-12-20T01:19:26;93179.38;;;0.84;nan
16738;BME280;17906;47.684;10.806;2023-12-20T01:21:54;93187.97;;;0.79;nan
16738;BME280;17906;47.684;10.806;2023-12-20T01:24:23;93200.88;;;0.61;nan
16738;BME280;17906;47.684;10.806;2023-12-20T01:26:49;93207.34;;;0.52;nan
16738;BME280;17906;47.684;10.806;2023-12-20T01:29:16;93196.03;;;0.65;nan
16738;BME280;17906;47.684;10.806;2023-12-20T01:31:42;93204.03;;;0.65;nan
16738;BME280;17906;47.684;10.806;2023-12-20T01:34:09;93211.66;;;0.68;nan
16738;BME280;17906;47.684;10.806;2023-12-20T01:36:35;93193.28;;;0.79;nan
16738;BME280;17906;47.684;10.806;2023-12-20T01:39:02;93182.31;;;0.68;nan
16738;BME280;17906;47.684;10.806;2023-12-20T01:41:30;93190.13;;;0.69;nan
16738;BME280;17906;47.684;10.806;2023-12-20T01:43:57;93184.16;;;0.67;nan
16738;BME280;17906;47.684;10.806;2023-12-20T01:46:24;93193.69;;;0.76;nan
16738;BME280;17906;47.684;10.806;2023-12-20T01:48:51;93187.75;;;0.81;nan
16738;BME280;17906;47.684;10.806;2023-12-20T01:51:18;93188.78;;;0.80;nan
16738;BME280;17906;47.684;10.806;2023-12-20T01:53:46;93189.06;;;0.85;nan
16738;BME280;17906;47.684;10.806;2023-12-20T01:56:14;93190.38;;;0.96;nan
16738;BME280;17906;47.684;10.806;2023-12-20T01:58:44;93185.03;;;0.96;nan
16738;BME280;17906;47.684;10.806;2023-12-20T02:01:11;93197.53;;;0.95;nan
16738;BME280;17906;47.684;10.806;2023-12-20T02:03:38;93193.16;;;0.87;nan
16738;BME280;17906;47.684;10.806;2023-12-20T02:06:05;93188.03;;;0.86;nan
16738;BME280;17906;47.684;10.806;2023-12-20T02:08:32;93191.13;;;0.89;nan
16738;BME280;17906;47.684;10.806;2023-12-20T02:10:59;93187.84;;;0.87;nan
16738;BME280;17906;47.684;10.806;2023-12-20T02:13:26;93179.00;;;0.87;nan
16738;BME280;17906;47.684;10.806;2023-12-20T02:15:54;93180.59;;;0.81;nan
16738;BME280;17906;47.684;10.806;2023-12-20T02:18:21;93179.38;;;0.84;nan
16738;BME280;17906;47.684;10.806;2023-12-20T02:20:48;93185.28;;;0.79;nan
16738;BME280;17906;47.684;10.806;2023-12-20T02:23:16;93184.69;;;0.84;nan
16738;BME280;17906;47.684;10.806;2023-12-20T02:25:43;93185.38;;;0.86;nan
16738;BME280;17906;47.684;10.806;2023-12-20T02:28:10;93176.06;;;0.82;nan
16738;BME280;17906;47.684;10.806;2023-12-20T02:30:36;93169.16;;;0.87;nan
16738;BME280;17906;47.684;10.806;2023-12-20T02:33:04;93153.66;;;0.98;nan
16738;BME280;17906;47.684;10.806;2023-12-20T02:35:33;93137.47;;;1.06;nan
16738;BME280;17906;47.684;10.806;2023-12-20T02:38:00;93142.28;;;1.17;nan
16738;BME280;17906;47.684;10.806;2023-12-20T02:40:28;93134.53;;;1.22;nan
16738;BME280;17906;47.684;10.806;2023-12-20T02:42:54;93135.97;;;1.25;nan
16738;BME280;17906;47.684;10.806;2023-12-20T02:45:21;93128.66;;;1.33;nan
16738;BME280;17906;47.684;10.806;2023-12-20T02:47:48;93134.81;;;1.34;nan
16738;BME280;17906;47.684;10.806;2023-12-20T02:50:14;93139.94;;;1.29;nan
16738;BME280;17906;47.684;10.806;2023-12-20T02:52:44;93138.66;;;1.25;nan
16738;BME280;17906;47.684;10.806;2023-12-20T02:55:10;93139.06;;;1.22;nan
16738;BME280;17906;47.684;10.806;2023-12-20T02:57:38;93142.69;;;1.14;nan
16738;BME280;17906;47.684;10.806;2023-12-20T03:00:07;93144.19;;;1.23;nan
16738;BME280;17906;47.684;10.806;2023-12-20T03:02:34;93140.50;;;1.24;nan
16738;BME280;17906;47.684;10.806;2023-12-20T03:05:01;93132.28;;;1.26;nan
16738;BME280;17906;47.684;10.806;2023-12-20T03:07:28;93146.72;;;1.31;nan
16738;BME280;17906;47.684;10.806;2023-12-20T03:09:54;93130.56;;;1.39;nan
16738;BME280;17906;47.684;10.806;2023-12-20T03:12:21;93129.34;;;1.42;nan
16738;BME280;17906;47.684;10.806;2023-12-20T03:14:49;93130.56;;;1.39;nan
16738;BME280;17906;47.684;10.806;2023-12-20T03:17:15;93121.69;;;1.39;nan
16738;BME280;17906;47.684;10.806;2023-12-20T03:19:42;93132.00;;;1.42;nan
16738;BME280;17906;47.684;10.806;2023-12-20T03:22:09;93133.59;;;1.36;nan
16738;BME280;17906;47.684;10.806;2023-12-20T03:24:35;93125.16;;;1.33;nan
16738;BME280;17906;47.684;10.806;2023-12-20T03:27:02;93129.00;;;1.24;nan
16738;BME280;17906;47.684;10.806;2023-12-20T03:29:29;93131.66;;;1.24;nan
16738;BME280;17906;47.684;10.806;2023-12-20T03:31:57;93126.09;;;1.18;nan
16738;BME280;17906;47.684;10.806;2023-12-20T03:34:23;93119.34;;;1.23;nan
16738;BME280;17906;47.684;10.806;2023-12-20T03:36:50;93117.00;;;1.41;nan
16738;BME280;17906;47.684;10.806;2023-12-20T03:39:17;93130.19;;;1.49;nan
16738;BME280;17906;47.684;10.806;2023-12-20T03:41:43;93119.66;;;1.41;nan
16738;BME280;17906;47.684;10.806;2023-12-20T03:44:10;93125.03;;;1.47;nan
16738;BME280;17906;47.684;10.806;2023-12-20T03:46:36;93123.38;;;1.40;nan
16738;BME280;17906;47.684;10.806;2023-12-20T03:49:04;93129.47;;;1.62;nan
16738;BME280;17906;47.684;10.806;2023-12-20T03:51:31;93124.75;;;1.70;nan
16738;BME280;17906;47.684;10.806;2023-12-20T03:53:57;93136.66;;;1.68;nan
16738;BME280;17906;47.684;10.806;2023-12-20T03:56:24;93135.53;;;1.84;nan
16738;BME280;17906;47.684;10.806;2023-12-20T03:58:51;93127.56;;;1.97;nan
16738;BME280;17906;47.684;10.806;2023-12-20T04:01:17;59087.34;;;-146.04;100.00
16738;BME280;17906;47.684;10.806;2023-12-20T04:03:44;59087.34;;;-146.04;100.00
16738;BME280;17906;47.684;10.806;2023-12-20T04:06:16;59087.34;;;-146.04;100.00
16738;BME280;17906;47.684;10.806;2023-12-20T04:08:43;59087.34;;;-146.04;100.00
16738;BME280;17906;47.684;10.806;2023-12-20T04:11:09;93108.19;;;2.56;nan
16738;BME280;17906;47.684;10.806;2023-12-20T04:13:35;93117.91;;;2.63;nan
16738;BME280;17906;47.684;10.806;2023-12-20T04:16:02;93121.59;;;2.69;nan
16738;BME280;17906;47.684;10.806;2023-12-20T04:18:28;93124.88;;;2.58;nan
16738;BME280;17906;47.684;10.806;2023-12-20T04:20:55;93128.19;;;2.60;nan
16738;BME280;17906;47.684;10.806;2023-12-20T04:23:23;93126.97;;;2.62;nan
16738;BME280;17906;47.684;10.806;2023-12-20T04:25:49;93126.72;;;2.57;nan
16738;BME280;17906;47.684;10.806;2023-12-20T04:28:16;93135.59;;;2.64;nan
16738;BME280;17906;47.684;10.806;2023-12-20T04:30:43;93141.16;;;2.63;nan
16738;BME280;17906;47.684;10.806;2023-12-20T04:33:09;93141.41;;;2.81;nan
16738;BME280;17906;47.684;10.806;2023-12-20T04:35:36;93139.34;;;2.70;nan
16738;BME280;17906;47.684;10.806;2023-12-20T04:38:03;93120.78;;;2.75;nan
16738;BME280;17906;47.684;10.806;2023-12-20T04:40:31;93121.22;;;2.72;nan
16738;BME280;17906;47.684;10.806;2023-12-20T04:42:57;93117.91;;;2.77;nan
16738;BME280;17906;47.684;10.806;2023-12-20T04:45:24;93112.97;;;2.67;nan
16738;BME280;17906;47.684;10.806;2023-12-20T04:47:51;93125.31;;;2.68;nan
16738;BME280;17906;47.684;10.806;2023-12-20T04:50:17;93116.88;;;2.71;nan
16738;BME280;17906;47.684;10.806;2023-12-20T04:52:45;93115.63;;;2.60;nan
16738;BME280;17906;47.684;10.806;2023-12-20T04:55:11;93115.00;;;2.65;nan
16738;BME280;17906;47.684;10.806;2023-12-20T04:57:39;93115.84;;;2.72;nan
16738;BME280;17906;47.684;10.806;2023-12-20T05:00:07;93107.00;;;2.65;nan
16738;BME280;17906;47.684;10.806;2023-12-20T05:02:34;93121.81;;;2.61;nan
16738;BME280;17906;47.684;10.806;2023-12-20T05:05:02;93125.66;;;2.39;nan
16738;BME280;17906;47.684;10.806;2023-12-20T05:07:29;93126.06;;;2.35;nan
16738;BME280;17906;47.684;10.806;2023-12-20T05:09:55;93124.19;;;2.36;nan
16738;BME280;17906;47.684;10.806;2023-12-20T05:12:22;93135.50;;;2.31;nan
16738;BME280;17906;47.684;10.806;2023-12-20T05:14:51;93152.34;;;2.25;nan
16738;BME280;17906;47.684;10.806;2023-12-20T05:17:18;93149.06;;;2.23;nan
16738;BME280;17906;47.684;10.806;2023-12-20T05:19:45;93150.09;;;2.22;nan
16738;BME280;17906;47.684;10.806;2023-12-20T05:22:12;93160.19;;;2.27;nan
16738;BME280;17906;47.684;10.806;2023-12-20T05:24:39;93167.97;;;2.22;nan
16738;BME280;17906;47.684;10.806;2023-12-20T05:27:05;93152.13;;;2.20;nan
16738;BME280;17906;47.684;10.806;2023-12-20T05:29:32;93161.59;;;2.16;nan
16738;BME280;17906;47.684;10.806;2023-12-20T05:32:00;93158.47;;;2.13;nan
16738;BME280;17906;47.684;10.806;2023-12-20T05:34:28;93160.94;;;2.08;nan
16738;BME280;17906;47.684;10.806;2023-12-20T05:36:55;93170.34;;;2.03;nan
16738;BME280;17906;47.684;10.806;2023-12-20T05:39:22;93173.22;;;1.95;nan
16738;BME280;17906;47.684;10.806;2023-12-20T05:41:48;93174.75;;;1.76;nan
16738;BME280;17906;47.684;10.806;2023-12-20T05:44:15;93201.88;;;1.73;nan
16738;BME280;17906;47.684;10.806;2023-12-20T05:46:41;93196.91;;;1.70;nan
16738;BME280;17906;47.684;10.806;2023-12-20T05:49:10;93210.03;;;1.65;nan
16738;BME280;17906;47.684;10.806;2023-12-20T05:51:37;93216.75;;;1.55;nan
16738;BME280;17906;47.684;10.806;2023-12-20T05:54:03;93214.81;;;1.48;nan
16738;BME280;17906;47.684;10.806;2023-12-20T05:56:30;93212.31;;;1.40;nan
16738;BME280;17906;47.684;10.806;2023-12-20T05:58:57;93236.69;;;1.31;nan
16738;BME280;17906;47.684;10.806;2023-12-20T06:01:24;93246.28;;;1.25;nan
16738;BME280;17906;47.684;10.806;2023-12-20T06:03:50;93249.13;;;1.24;nan
16738;BME280;17906;47.684;10.806;2023-12-20T06:06:18;93249.53;;;1.21;nan
16738;BME280;17906;47.684;10.806;2023-12-20T06:08:45;59087.34;;;-146.04;100.00
16738;BME280;17906;47.684;10.806;2023-12-20T06:11:11;59087.34;;;-146.04;100.00
16738;BME280;17906;47.684;10.806;2023-12-20T06:13:38;59087.34;;;-146.04;100.00
16738;BME280;17906;47.684;10.806;2023-12-20T06:16:06;59087.34;;;-146.04;100.00
16738;BME280;17906;47.684;10.806;2023-12-20T06:18:33;59087.34;;;-146.04;100.00
16738;BME280;17906;47.684;10.806;2023-12-20T06:20:59;59087.34;;;-146.04;100.00
16738;BME280;17906;47.684;10.806;2023-12-20T06:23:27;59087.34;;;-146.04;100.00
16738;BME280;17906;47.684;10.806;2023-12-20T06:25:54;59087.34;;;-146.04;100.00
16738;BME280;17906;47.684;10.806;2023-12-20T06:28:20;93270.84;;;0.78;nan
16738;BME280;17906;47.684;10.806;2023-12-20T06:30:47;93279.16;;;0.68;nan
16738;BME280;17906;47.684;10.806;2023-12-20T06:33:15;93275.13;;;0.57;nan
16738;BME280;17906;47.684;10.806;2023-12-20T06:35:41;93285.81;;;0.57;nan
16738;BME280;17906;47.684;10.806;2023-12-20T06:38:08;93294.81;;;0.56;nan
16738;BME280;17906;47.684;10.806;2023-12-20T06:40:36;93298.59;;;0.47;nan
16738;BME280;17906;47.684;10.806;2023-12-20T06:43:03;93311.94;;;0.47;nan
16738;BME280;17906;47.684;10.806;2023-12-20T06:45:29;93320.84;;;0.40;nan
16738;BME280;17906;47.684;10.806;2023-12-20T06:47:56;93319.38;;;0.37;nan
16738;BME280;17906;47.684;10.806;2023-12-20T06:50:23;93317.66;;;0.44;nan
16738;BME280;17906;47.684;10.806;2023-12-20T06:52:50;93317.00;;;0.42;nan
16738;BME280;17906;47.684;10.806;2023-12-20T06:55:17;93320.56;;;0.49;nan
16738;BME280;17906;47.684;10.806;2023-12-20T06:57:45;93322.16;;;0.44;nan
16738;BME280;17906;47.684;10.806;2023-12-20T07:00:12;93325.84;;;0.43;nan
16738;BME280;17906;47.684;10.806;2023-12-20T07:02:39;93326.84;;;0.42;nan
16738;BME280;17906;47.684;10.806;2023-12-20T07:05:06;93338.34;;;0.42;nan
16738;BME280;17906;47.684;10.806;2023-12-20T07:07:33;93324.09;;;0.35;nan
16738;BME280;17906;47.684;10.806;2023-12-20T07:10:00;93341.28;;;0.33;nan
16738;BME280;17906;47.684;10.806;2023-12-20T07:12:26;93339.78;;;0.30;nan
16738;BME280;17906;47.684;10.806;2023-12-20T07:14:55;93341.00;;;0.27;nan
16738;BME280;17906;47.684;10.806;2023-12-20T07:17:22;93338.81;;;0.31;nan
16738;BME280;17906;47.684;10.806;2023-12-20T07:19:48;93334.94;;;0.34;nan
16738;BME280;17906;47.684;10.806;2023-12-20T07:22:15;93339.16;;;0.28;nan
16738;BME280;17906;47.684;10.806;2023-12-20T07:24:42;93343.56;;;0.21;nan
16738;BME280;17906;47.684;10.806;2023-12-20T07:27:08;93341.81;;;0.28;nan
16738;BME280;17906;47.684;10.806;2023-12-20T07:29:35;93336.97;;;0.31;nan
16738;BME280;17906;47.684;10.806;2023-12-20T07:32:03;93332.47;;;0.32;nan
16738;BME280;17906;47.684;10.806;2023-12-20T07:34:30;93346.69;;;0.39;nan
16738;BME280;17906;47.684;10.806;2023-12-20T07:36:57;93345.78;;;0.47;nan
16738;BME280;17906;47.684;10.806;2023-12-20T07:39:23;93350.47;;;0.45;nan
16738;BME280;17906;47.684;10.806;2023-12-20T07:41:50;93370.59;;;0.47;nan
16738;BME280;17906;47.684;10.806;2023-12-20T07:44:17;93357.91;;;0.49;nan
16738;BME280;17906;47.684;10.806;2023-12-20T07:46:43;93358.53;;;0.51;nan
16738;BME280;17906;47.684;10.806;2023-12-20T07:49:11;93356.16;;;0.56;nan
16738;BME280;17906;47.684;10.806;2023-12-20T07:51:38;93354.88;;;0.52;nan
16738;BME280;17906;47.684;10.806;2023-12-20T07:54:04;93355.53;;;0.54;nan
16738;BME280;17906;47.684;10.806;2023-12-20T07:56:33;93356.16;;;0.56;nan
16738;BME280;17906;47.684;10.806;2023-12-20T07:59:00;93366.25;;;0.61;nan
16738;BME280;17906;47.684;10.806;2023-12-20T08:01:26;93365.81;;;0.57;nan
16738;BME280;17906;47.684;10.806;2023-12-20T08:03:53;93368.41;;;0.66;nan
16738;BME280;17906;47.684;10.806;2023-12-20T08:06:21;93368.22;;;0.67;nan
16738;BME280;17906;47.684;10.806;2023-12-20T08:08:48;93373.16;;;0.70;nan
16738;BME280;17906;47.684;10.806;2023-12-20T08:11:14;93364.97;;;0.72;nan
16738;BME280;17906;47.684;10.806;2023-12-20T08:13:41;93373.25;;;0.77;nan
16738;BME280;17906;47.684;10.806;2023-12-20T08:16:07;93377.38;;;0.79;nan
16738;BME280;17906;47.684;10.806;2023-12-20T08:18:34;93377.09;;;0.89;nan
16738;BME280;17906;47.684;10.806;2023-12-20T08:21:01;93375.50;;;0.95;nan
16738;BME280;17906;47.684;10.806;2023-12-20T08:23:29;93375.78;;;1.00;nan
16738;BME280;17906;47.684;10.806;2023-12-20T08:25:55;93385.38;;;0.94;nan
16738;BME280;17906;47.684;10.806;2023-12-20T08:28:22;93384.34;;;0.95;nan
16738;BME280;17906;47.684;10.806;2023-12-20T08:30:48;93391.91;;;0.92;nan
16738;BME280;17906;47.684;10.806;2023-12-20T08:33:18;93390.53;;;0.96;nan
16738;BME280;17906;47.684;10.806;2023-12-20T08:35:45;93386.91;;;1.03;nan
16738;BME280;17906;47.684;10.806;2023-12-20T08:38:11;93386.91;;;1.03;nan
16738;BME280;17906;47.684;10.806;2023-12-20T08:40:39;93382.41;;;1.04;nan
16738;BME280;17906;47.684;10.806;2023-12-20T08:43:06;93390.31;;;1.12;nan
16738;BME280;17906;47.684;10.806;2023-12-20T08:45:33;93387.84;;;1.10;nan
16738;BME280;17906;47.684;10.806;2023-12-20T08:47:59;93389.28;;;1.13;nan
16738;BME280;17906;47.684;10.806;2023-12-20T08:50:26;93385.81;;;1.12;nan
16738;BME280;17906;47.684;10.806;2023-12-20T08:52:53;93385.81;;;1.12;nan
16738;BME280;17906;47.684;10.806;2023-12-20T08:55:19;93386.72;;;1.19;nan
16738;BME280;17906;47.684;10.806;2023-12-20T08:57:47;93389.25;;;1.28;nan
16738;BME280;17906;47.684;10.806;2023-12-20T09:00:15;93376.16;;;1.33;nan
16738;BME280;17906;47.684;10.806;2023-12-20T09:02:41;93387.69;;;1.33;nan
16738;BME280;17906;47.684;10.806;2023-12-20T09:05:08;93382.25;;;1.27;nan
16738;BME280;17906;47.684;10.806;2023-12-20T09:07:35;93367.88;;;1.28;nan
16738;BME280;17906;47.684;10.806;2023-12-20T09:10:01;93377.59;;;1.29;nan
16738;BME280;17906;47.684;10.806;2023-12-20T09:12:29;93373.06;;;1.29;nan
16738;BME280;17906;47.684;10.806;2023-12-20T09:14:57;93368.47;;;1.23;nan
16738;BME280;17906;47.684;10.806;2023-12-20T09:17:23;93361.41;;;1.37;nan
16738;BME280;17906;47.684;10.806;2023-12-20T09:19:50;93366.22;;;1.41;nan
16738;BME280;17906;47.684;10.806;2023-12-20T09:22:17;93361.69;;;1.42;nan
16738;BME280;17906;47.684;10.806;2023-12-20T09:24:44;93361.06;;;1.40;nan
16738;BME280;17906;47.684;10.806;2023-12-20T09:27:11;93362.50;;;1.42;nan
16738;BME280;17906;47.684;10.806;2023-12-20T09:29:38;93371.56;;;1.41;nan
16738;BME280;17906;47.684;10.806;2023-12-20T09:32:06;93372.72;;;1.39;nan
16738;BME280;17906;47.684;10.806;2023-12-20T09:34:33;93373.84;;;1.44;nan
16738;BME280;17906;47.684;10.806;2023-12-20T09:37:00;93364.41;;;1.48;nan
16738;BME280;17906;47.684;10.806;2023-12-20T09:39:26;93354.00;;;1.54;nan
16738;BME280;17906;47.684;10.806;2023-12-20T09:42:00;93359.78;;;1.57;nan
16738;BME280;17906;47.684;10.806;2023-12-20T09:44:27;93350.50;;;1.53;nan
16738;BME280;17906;47.684;10.806;2023-12-20T09:46:55;93355.06;;;1.59;nan
16738;BME280;17906;47.684;10.806;2023-12-20T09:49:23;93352.22;;;1.61;nan
16738;BME280;17906;47.684;10.806;2023-12-20T09:51:53;93364.59;;;1.68;nan
16738;BME280;17906;47.684;10.806;2023-12-20T09:54:21;93351.84;;;1.64;nan
16738;BME280;17906;47.684;10.806;2023-12-20T09:56:48;93349.19;;;1.70;nan
16738;BME280;17906;47.684;10.806;2023-12-20T09:59:14;93345.34;;;1.73;nan
16738;BME280;17906;47.684;10.806;2023-12-20T10:01:42;93337.31;;;1.73;nan
16738;BME280;17906;47.684;10.806;2023-12-20T10:04:10;93335.47;;;1.73;nan
16738;BME280;17906;47.684;10.806;2023-12-20T10:06:39;93341.84;;;1.72;nan
16738;BME280;17906;47.684;10.806;2023-12-20T10:09:05;93346.22;;;1.80;nan
16738;BME280;17906;47.684;10.806;2023-12-20T10:11:32;93342.28;;;1.76;nan
16738;BME280;17906;47.684;10.806;2023-12-20T10:13:59;93336.94;;;1.76;nan
16738;BME280;17906;47.684;10.806;2023-12-20T10:16:26;93325.13;;;1.64;nan
16738;BME280;17906;47.684;10.806;2023-12-20T10:18:53;93328.47;;;1.72;nan
16738;BME280;17906;47.684;10.806;2023-12-20T10:21:20;93320.06;;;1.75;nan
16738;BME280;17906;47.684;10.806;2023-12-20T10:23:49;93320.06;;;1.75;nan
16738;BME280;17906;47.684;10.806;2023-12-20T10:26:19;93321.31;;;1.80;nan
16738;BME280;17906;47.684;10.806;2023-12-20T10:28:50;93307.22;;;1.86;nan
16738;BME280;17906;47.684;10.806;2023-12-20T10:31:29;93317.19;;;1.77;nan
16738;BME280;17906;47.684;10.806;2023-12-20T10:33:56;93318.03;;;1.77;nan
16738;BME280;17906;47.684;10.806;2023-12-20T10:36:24;93317.28;;;1.84;nan
16738;BME280;17906;47.684;10.806;2023-12-20T10:38:54;93310.44;;;1.81;nan
16738;BME280;17906;47.684;10.806;2023-12-20T10:41:25;93299.75;;;1.81;nan
16738;BME280;17906;47.684;10.806;2023-12-20T10:43:54;93308.22;;;1.85;nan
16738;BME280;17906;47.684;10.806;2023-12-20T10:46:21;93307.34;;;1.77;nan
16738;BME280;17906;47.684;10.806;2023-12-20T10:48:50;93299.31;;;1.77;nan
16738;BME280;17906;47.684;10.806;2023-12-20T10:51:18;93300.09;;;1.71;nan
16738;BME280;17906;47.684;10.806;2023-12-20T10:53:47;93296.84;;;1.76;nan
16738;BME280;17906;47.684;10.806;2023-12-20T10:56:16;93282.66;;;1.75;nan
16738;BME280;17906;47.684;10.806;2023-12-20T10:58:43;93283.56;;;1.83;nan
16738;BME280;17906;47.684;10.806;2023-12-20T11:01:12;93271.19;;;1.82;nan
16738;BME280;17906;47.684;10.806;2023-12-20T11:03:43;93271.66;;;1.92;nan
16738;BME280;17906;47.684;10.806;2023-12-20T11:06:27;93269.47;;;2.02;nan
16738;BME280;17906;47.684;10.806;2023-12-20T11:09:03;93272.41;;;2.07;nan
16738;BME280;17906;47.684;10.806;2023-12-20T11:11:41;93275.09;;;2.14;nan
16738;BME280;17906;47.684;10.806;2023-12-20T11:14:19;93277.13;;;2.05;nan
16738;BME280;17906;47.684;10.806;2023-12-20T11:16:46;93270.56;;;2.08;nan
16738;BME280;17906;47.684;10.806;2023-12-20T11:19:13;93263.56;;;2.13;nan
16738;BME280;17906;47.684;10.806;2023-12-20T11:21:40;93260.69;;;2.15;nan
16738;BME280;17906;47.684;10.806;2023-12-20T11:24:07;93262.94;;;2.11;nan
16738;BME280;17906;47.684;10.806;2023-12-20T11:26:33;93262.72;;;2.06;nan
16738;BME280;17906;47.684;10.806;2023-12-20T11:29:32;93265.97;;;2.01;nan
16738;BME280;17906;47.684;10.806;2023-12-20T11:32:00;93261.22;;;1.97;nan
16738;BME280;17906;47.684;10.806;2023-12-20T11:34:27;93268.63;;;1.95;nan
16738;BME280;17906;47.684;10.806;2023-12-20T11:36:57;93263.91;;;1.97;nan
16738;BME280;17906;47.684;10.806;2023-12-20T11:39:25;93269.00;;;1.92;nan
16738;BME280;17906;47.684;10.806;2023-12-20T11:41:52;93264.94;;;2.02;nan
16738;BME280;17906;47.684;10.806;2023-12-20T11:44:20;93269.25;;;1.97;nan
16738;BME280;17906;47.684;10.806;2023-12-20T11:46:49;93273.50;;;1.91;nan
16738;BME280;17906;47.684;10.806;2023-12-20T11:49:16;93270.22;;;1.89;nan
16738;BME280;17906;47.684;10.806;2023-12-20T11:51:44;93272.84;;;1.83;nan
16738;BME280;17906;47.684;10.806;2023-12-20T11:54:10;93272.59;;;1.77;nan
16738;BME280;17906;47.684;10.806;2023-12-20T11:56:37;93273.69;;;1.83;nan
16738;BME280;17906;47.684;10.806;2023-12-20T11:59:04;93272.25;;;1.87;nan
16738;BME280;17906;47.684;10.806;2023-12-20T12:01:31;93284.94;;;1.78;nan
16738;BME280;17906;47.684;10.806;2023-12-20T12:04:05;93286.78;;;1.78;nan
16738;BME280;17906;47.684;10.806;2023-12-20T12:06:32;93271.97;;;1.75;nan
16738;BME280;17906;47.684;10.806;2023-12-20T12:08:59;93280.00;;;1.75;nan
16738;BME280;17906;47.684;10.806;2023-12-20T12:11:25;93273.56;;;1.70;nan
16738;BME280;17906;47.684;10.806;2023-12-20T12:13:52;93280.38;;;1.72;nan
16738;BME280;17906;47.684;10.806;2023-12-20T12:16:19;93273.53;;;1.63;nan
16738;BME280;17906;47.684;10.806;2023-12-20T12:18:46;93266.00;;;1.73;nan
16738;BME280;17906;47.684;10.806;2023-12-20T12:21:22;93264.59;;;1.77;nan
16738;BME280;17906;47.684;10.806;2023-12-20T12:23:49;93278.97;;;1.76;nan
16738;BME280;17906;47.684;10.806;2023-12-20T12:26:15;93282.03;;;1.73;nan
16738;BME280;17906;47.684;10.806;2023-12-20T12:28:42;93286.69;;;1.65;nan
16738;BME280;17906;47.684;10.806;2023-12-20T12:31:13;59087.34;;;-146.04;100.00
16738;BME280;17906;47.684;10.806;2023-12-20T12:33:41;59087.34;;;-146.04;100.00
16738;BME280;17906;47.684;10.806;2023-12-20T12:36:09;59087.34;;;-146.04;100.00
16738;BME280;17906;47.684;10.806;2023-12-20T12:38:38;59087.34;;;-146.04;100.00
16738;BME280;17906;47.684;10.806;2023-12-20T12:41:04;59087.34;;;-146.04;100.00
16738;BME280;17906;47.684;10.806;2023-12-20T12:43:32;59087.34;;;-146.04;100.00
16738;BME280;17906;47.684;10.806;2023-12-20T12:45:59;59087.34;;;-146.04;100.00
16738;BME280;17906;47.684;10.806;2023-12-20T12:48:26;59087.34;;;-146.04;100.00
16738;BME280;17906;47.684;10.806;2023-12-20T12:50:53;59087.34;;;-146.04;100.00
16738;BME280;17906;47.684;10.806;2023-12-20T12:53:22;59087.34;;;-146.04;100.00
16738;BME280;17906;47.684;10.806;2023-12-20T12:55:50;59087.34;;;-146.04;100.00
16738;BME280;17906;47.684;10.806;2023-12-20T12:58:17;59087.34;;;-146.04;100.00
16738;BME280;17906;47.684;10.806;2023-12-20T13:00:43;59087.34;;;-146.04;100.00
16738;BME280;17906;47.684;10.806;2023-12-20T13:03:10;59087.34;;;-146.04;100.00
16738;BME280;17906;47.684;10.806;2023-12-20T13:05:37;59087.34;;;-146.04;100.00
16738;BME280;17906;47.684;10.806;2023-12-20T13:08:04;59087.34;;;-146.04;100.00
16738;BME280;17906;47.684;10.806;2023-12-20T13:10:31;59087.34;;;-146.04;100.00
16738;BME280;17906;47.684;10.806;2023-12-20T13:12:58;59087.34;;;-146.04;100.00
16738;BME280;17906;47.684;10.806;2023-12-20T13:15:25;59087.34;;;-146.04;100.00